Autryville, North Carolina
Current Conditions -  °F | °C
As of 4:53 PM on Friday 31 Oct 2014 (Local Time) from KFAY Reporting Station
Scattered Clouds Scattered Clouds  
Wind Chill: 18°   Ceiling: Unl
Heat Index: 18°   Visibility: 10mi
Dew Point:   Wind: 10mph
Humidity: 45%   Direction: 40°NE
Pressure: 29.79"   Gusts: NA
Location:  35°N, 78.64°W
Report Text: KFAY 312053Z AUTO 04009KT 10SM SCT055 SCT070 18/06 A2979 RMK AO2 SLP085 T01780056 56014
Loading
Personal Weather Stations






























Interactive Weather Map
Tropical Storm Tracking
New forecast layout! Learn more

10-Day Weather Forecast

Advertisements
Track Severe Weather on mobile